sensor_id;sensor_type;location;lat;lon;timestamp;temperature;humidity
42031;DHT22;27709;52.036;5.906;2023-10-08T00:02:25;19.30;99.90
42031;DHT22;27709;52.036;5.906;2023-10-08T00:04:53;19.20;99.90
42031;DHT22;27709;52.036;5.906;2023-10-08T00:07:22;19.30;99.90
42031;DHT22;27709;52.036;5.906;2023-10-08T00:09:52;19.30;99.90
42031;DHT22;27709;52.036;5.906;2023-10-08T00:12:21;19.30;99.90
42031;DHT22;27709;52.036;5.906;2023-10-08T00:14:47;19.20;99.90
42031;DHT22;27709;52.036;5.906;2023-10-08T00:17:16;19.20;99.90
42031;DHT22;27709;52.036;5.906;2023-10-08T00:19:42;19.20;99.90
42031;DHT22;27709;52.036;5.906;2023-10-08T00:22:12;19.20;99.90
42031;DHT22;27709;52.036;5.906;2023-10-08T00:24:45;19.20;99.90
42031;DHT22;27709;52.036;5.906;2023-10-08T00:27:20;19.20;99.90
42031;DHT22;27709;52.036;5.906;2023-10-08T00:29:50;19.20;99.90
42031;DHT22;27709;52.036;5.906;2023-10-08T00:32:19;19.20;99.90
42031;DHT22;27709;52.036;5.906;2023-10-08T00:34:49;19.20;99.90
42031;DHT22;27709;52.036;5.906;2023-10-08T00:37:15;19.20;99.90
42031;DHT22;27709;52.036;5.906;2023-10-08T00:39:41;19.20;99.90
42031;DHT22;27709;52.036;5.906;2023-10-08T00:42:07;19.20;99.90
42031;DHT22;27709;52.036;5.906;2023-10-08T00:44:37;19.20;99.90
42031;DHT22;27709;52.036;5.906;2023-10-08T00:47:16;19.20;99.90
42031;DHT22;27709;52.036;5.906;2023-10-08T00:49:42;19.10;99.90
42031;DHT22;27709;52.036;5.906;2023-10-08T00:52:12;19.20;99.90
42031;DHT22;27709;52.036;5.906;2023-10-08T00:54:41;19.10;99.90
42031;DHT22;27709;52.036;5.906;2023-10-08T00:57:27;19.10;99.90
42031;DHT22;27709;52.036;5.906;2023-10-08T00:59:55;19.10;99.90
42031;DHT22;27709;52.036;5.906;2023-10-08T01:02:27;19.10;99.90
42031;DHT22;27709;52.036;5.906;2023-10-08T01:04:58;19.10;99.90
42031;DHT22;27709;52.036;5.906;2023-10-08T01:07:27;19.10;99.90
42031;DHT22;27709;52.036;5.906;2023-10-08T01:09:53;19.10;99.90
42031;DHT22;27709;52.036;5.906;2023-10-08T01:12:25;19.10;99.90
42031;DHT22;27709;52.036;5.906;2023-10-08T01:14:59;19.00;99.90
42031;DHT22;27709;52.036;5.906;2023-10-08T01:17:38;19.10;99.90
42031;DHT22;27709;52.036;5.906;2023-10-08T01:20:15;19.00;99.90
42031;DHT22;27709;52.036;5.906;2023-10-08T01:23:12;19.00;99.90
42031;DHT22;27709;52.036;5.906;2023-10-08T01:25:47;19.00;99.90
42031;DHT22;27709;52.036;5.906;2023-10-08T01:28:18;19.00;99.90
42031;DHT22;27709;52.036;5.906;2023-10-08T01:30:54;19.00;99.90
42031;DHT22;27709;52.036;5.906;2023-10-08T01:33:22;19.00;99.90
42031;DHT22;27709;52.036;5.906;2023-10-08T01:35:47;19.00;99.90
42031;DHT22;27709;52.036;5.906;2023-10-08T01:38:16;19.00;99.90
42031;DHT22;27709;52.036;5.906;2023-10-08T01:40:42;19.00;99.90
42031;DHT22;27709;52.036;5.906;2023-10-08T01:43:09;19.00;99.90
42031;DHT22;27709;52.036;5.906;2023-10-08T01:45:36;19.00;99.90
42031;DHT22;27709;52.036;5.906;2023-10-08T01:48:06;18.90;99.90
42031;DHT22;27709;52.036;5.906;2023-10-08T01:50:35;18.90;99.90
42031;DHT22;27709;52.036;5.906;2023-10-08T01:53:00;18.90;99.90
42031;DHT22;27709;52.036;5.906;2023-10-08T01:55:26;18.90;99.90
42031;DHT22;27709;52.036;5.906;2023-10-08T01:57:52;18.90;99.90
42031;DHT22;27709;52.036;5.906;2023-10-08T02:00:18;18.90;99.90
42031;DHT22;27709;52.036;5.906;2023-10-08T02:02:50;18.90;99.90
42031;DHT22;27709;52.036;5.906;2023-10-08T02:05:16;18.90;99.90
42031;DHT22;27709;52.036;5.906;2023-10-08T02:07:44;18.80;99.90
42031;DHT22;27709;52.036;5.906;2023-10-08T02:10:10;18.80;99.90
42031;DHT22;27709;52.036;5.906;2023-10-08T02:12:39;18.80;99.90
42031;DHT22;27709;52.036;5.906;2023-10-08T02:15:07;18.80;99.90
42031;DHT22;27709;52.036;5.906;2023-10-08T02:17:33;18.80;99.90
42031;DHT22;27709;52.036;5.906;2023-10-08T02:19:59;18.70;99.90
42031;DHT22;27709;52.036;5.906;2023-10-08T02:22:26;18.70;99.90
42031;DHT22;27709;52.036;5.906;2023-10-08T02:24:52;18.70;99.90
42031;DHT22;27709;52.036;5.906;2023-10-08T02:27:18;18.70;99.90
42031;DHT22;27709;52.036;5.906;2023-10-08T02:29:45;18.70;99.90
42031;DHT22;27709;52.036;5.906;2023-10-08T02:32:11;18.70;99.90
42031;DHT22;27709;52.036;5.906;2023-10-08T02:34:36;18.70;99.90
42031;DHT22;27709;52.036;5.906;2023-10-08T02:37:02;18.70;99.90
42031;DHT22;27709;52.036;5.906;2023-10-08T02:39:30;18.70;99.90
42031;DHT22;27709;52.036;5.906;2023-10-08T02:41:57;18.70;99.90
42031;DHT22;27709;52.036;5.906;2023-10-08T02:44:25;18.70;99.90
42031;DHT22;27709;52.036;5.906;2023-10-08T02:46:52;18.70;99.90
42031;DHT22;27709;52.036;5.906;2023-10-08T02:49:20;18.70;99.90
42031;DHT22;27709;52.036;5.906;2023-10-08T02:51:51;18.70;99.90
42031;DHT22;27709;52.036;5.906;2023-10-08T02:54:17;18.70;99.90
42031;DHT22;27709;52.036;5.906;2023-10-08T02:56:51;18.70;99.90
42031;DHT22;27709;52.036;5.906;2023-10-08T02:59:17;18.70;99.90
42031;DHT22;27709;52.036;5.906;2023-10-08T03:01:43;18.70;99.90
42031;DHT22;27709;52.036;5.906;2023-10-08T03:04:10;18.70;99.90
42031;DHT22;27709;52.036;5.906;2023-10-08T03:06:48;18.60;99.90
42031;DHT22;27709;52.036;5.906;2023-10-08T03:09:16;18.60;99.90
42031;DHT22;27709;52.036;5.906;2023-10-08T03:11:47;18.60;99.90
42031;DHT22;27709;52.036;5.906;2023-10-08T03:14:12;18.60;99.90
42031;DHT22;27709;52.036;5.906;2023-10-08T03:16:42;18.60;99.90
42031;DHT22;27709;52.036;5.906;2023-10-08T03:19:07;18.70;99.90
42031;DHT22;27709;52.036;5.906;2023-10-08T03:21:33;18.70;99.90
42031;DHT22;27709;52.036;5.906;2023-10-08T03:24:02;18.70;99.90
42031;DHT22;27709;52.036;5.906;2023-10-08T03:26:41;18.70;99.90
42031;DHT22;27709;52.036;5.906;2023-10-08T03:29:13;18.60;99.90
42031;DHT22;27709;52.036;5.906;2023-10-08T03:31:42;18.60;99.90
42031;DHT22;27709;52.036;5.906;2023-10-08T03:34:19;18.60;99.90
42031;DHT22;27709;52.036;5.906;2023-10-08T03:36:45;18.60;99.90
42031;DHT22;27709;52.036;5.906;2023-10-08T03:39:14;18.60;99.90
42031;DHT22;27709;52.036;5.906;2023-10-08T03:41:41;18.60;99.90
42031;DHT22;27709;52.036;5.906;2023-10-08T03:44:08;18.60;99.90
42031;DHT22;27709;52.036;5.906;2023-10-08T03:46:42;18.60;99.90
42031;DHT22;27709;52.036;5.906;2023-10-08T03:49:14;18.60;99.90
42031;DHT22;27709;52.036;5.906;2023-10-08T03:52:00;18.60;99.90
42031;DHT22;27709;52.036;5.906;2023-10-08T03:54:27;18.60;99.90
42031;DHT22;27709;52.036;5.906;2023-10-08T03:57:00;18.60;99.90
42031;DHT22;27709;52.036;5.906;2023-10-08T03:59:28;18.60;99.90
42031;DHT22;27709;52.036;5.906;2023-10-08T04:02:21;18.60;99.90
42031;DHT22;27709;52.036;5.906;2023-10-08T04:05:06;18.60;99.90
42031;DHT22;27709;52.036;5.906;2023-10-08T04:07:45;18.70;99.90
42031;DHT22;27709;52.036;5.906;2023-10-08T04:10:32;18.60;99.90
42031;DHT22;27709;52.036;5.906;2023-10-08T04:13:04;18.60;99.90
42031;DHT22;27709;52.036;5.906;2023-10-08T04:15:36;18.60;99.90
42031;DHT22;27709;52.036;5.906;2023-10-08T04:18:06;18.50;99.90
42031;DHT22;27709;52.036;5.906;2023-10-08T04:20:32;18.40;99.90
42031;DHT22;27709;52.036;5.906;2023-10-08T04:23:08;18.30;99.90
42031;DHT22;27709;52.036;5.906;2023-10-08T04:25:43;18.20;99.90
42031;DHT22;27709;52.036;5.906;2023-10-08T04:28:10;18.10;99.90
42031;DHT22;27709;52.036;5.906;2023-10-08T04:30:46;18.00;99.90
42031;DHT22;27709;52.036;5.906;2023-10-08T04:33:12;17.90;99.90
42031;DHT22;27709;52.036;5.906;2023-10-08T04:35:43;17.80;99.90
42031;DHT22;27709;52.036;5.906;2023-10-08T04:38:20;17.70;99.90
42031;DHT22;27709;52.036;5.906;2023-10-08T04:40:47;17.60;99.90
42031;DHT22;27709;52.036;5.906;2023-10-08T04:43:23;17.50;99.90
42031;DHT22;27709;52.036;5.906;2023-10-08T04:45:53;17.50;99.90
42031;DHT22;27709;52.036;5.906;2023-10-08T04:48:19;17.40;99.90
42031;DHT22;27709;52.036;5.906;2023-10-08T04:50:55;17.30;99.90
42031;DHT22;27709;52.036;5.906;2023-10-08T04:53:31;17.30;99.90
42031;DHT22;27709;52.036;5.906;2023-10-08T04:56:07;17.30;99.90
42031;DHT22;27709;52.036;5.906;2023-10-08T04:58:40;17.20;99.90
42031;DHT22;27709;52.036;5.906;2023-10-08T05:01:09;17.10;99.90
42031;DHT22;27709;52.036;5.906;2023-10-08T05:03:52;17.10;99.90
42031;DHT22;27709;52.036;5.906;2023-10-08T05:06:21;17.00;99.90
42031;DHT22;27709;52.036;5.906;2023-10-08T05:09:05;17.00;99.90
42031;DHT22;27709;52.036;5.906;2023-10-08T05:11:43;17.00;99.90
42031;DHT22;27709;52.036;5.906;2023-10-08T05:14:32;17.00;99.90
42031;DHT22;27709;52.036;5.906;2023-10-08T05:17:06;17.00;99.90
42031;DHT22;27709;52.036;5.906;2023-10-08T05:19:41;16.90;99.90
42031;DHT22;27709;52.036;5.906;2023-10-08T05:22:14;16.90;99.90
42031;DHT22;27709;52.036;5.906;2023-10-08T05:24:47;16.80;99.90
42031;DHT22;27709;52.036;5.906;2023-10-08T05:27:39;16.80;99.90
42031;DHT22;27709;52.036;5.906;2023-10-08T05:30:18;16.70;99.90
42031;DHT22;27709;52.036;5.906;2023-10-08T05:33:02;16.70;99.90
42031;DHT22;27709;52.036;5.906;2023-10-08T05:35:29;16.70;99.90
42031;DHT22;27709;52.036;5.906;2023-10-08T05:38:04;16.70;99.90
42031;DHT22;27709;52.036;5.906;2023-10-08T05:40:47;16.70;99.90
42031;DHT22;27709;52.036;5.906;2023-10-08T05:43:29;16.70;99.90
42031;DHT22;27709;52.036;5.906;2023-10-08T05:48:52;16.60;99.90
42031;DHT22;27709;52.036;5.906;2023-10-08T05:51:35;16.60;99.90
42031;DHT22;27709;52.036;5.906;2023-10-08T05:54:15;16.60;99.90
42031;DHT22;27709;52.036;5.906;2023-10-08T05:56:53;16.60;99.90
42031;DHT22;27709;52.036;5.906;2023-10-08T05:59:31;16.50;99.90
42031;DHT22;27709;52.036;5.906;2023-10-08T06:02:06;16.50;99.90
42031;DHT22;27709;52.036;5.906;2023-10-08T06:04:53;16.40;99.90
42031;DHT22;27709;52.036;5.906;2023-10-08T06:07:42;16.40;99.90
42031;DHT22;27709;52.036;5.906;2023-10-08T06:10:31;16.40;99.90
42031;DHT22;27709;52.036;5.906;2023-10-08T06:15:39;16.40;99.90
42031;DHT22;27709;52.036;5.906;2023-10-08T06:18:27;16.30;99.90
42031;DHT22;27709;52.036;5.906;2023-10-08T06:20:54;16.30;99.90
42031;DHT22;27709;52.036;5.906;2023-10-08T06:23:20;16.30;99.90
42031;DHT22;27709;52.036;5.906;2023-10-08T06:25:57;16.30;99.90
42031;DHT22;27709;52.036;5.906;2023-10-08T06:28:27;16.30;99.90
42031;DHT22;27709;52.036;5.906;2023-10-08T06:31:20;16.30;99.90
42031;DHT22;27709;52.036;5.906;2023-10-08T06:33:52;16.20;99.90
42031;DHT22;27709;52.036;5.906;2023-10-08T06:36:18;16.20;99.90
42031;DHT22;27709;52.036;5.906;2023-10-08T06:38:49;16.30;99.90
42031;DHT22;27709;52.036;5.906;2023-10-08T06:41:16;16.30;99.90
42031;DHT22;27709;52.036;5.906;2023-10-08T06:43:48;16.30;99.90
42031;DHT22;27709;52.036;5.906;2023-10-08T06:46:28;16.20;99.90
42031;DHT22;27709;52.036;5.906;2023-10-08T06:48:58;16.20;99.90
42031;DHT22;27709;52.036;5.906;2023-10-08T06:51:23;16.20;99.90
42031;DHT22;27709;52.036;5.906;2023-10-08T06:53:51;16.20;99.90
42031;DHT22;27709;52.036;5.906;2023-10-08T06:56:17;16.20;99.90
42031;DHT22;27709;52.036;5.906;2023-10-08T06:58:46;16.20;99.90
42031;DHT22;27709;52.036;5.906;2023-10-08T07:01:18;16.20;99.90
42031;DHT22;27709;52.036;5.906;2023-10-08T07:03:49;16.20;99.90
42031;DHT22;27709;52.036;5.906;2023-10-08T07:06:16;16.20;99.90
42031;DHT22;27709;52.036;5.906;2023-10-08T07:08:43;16.20;99.90
42031;DHT22;27709;52.036;5.906;2023-10-08T07:11:12;16.20;99.90
42031;DHT22;27709;52.036;5.906;2023-10-08T07:13:39;16.30;99.90
42031;DHT22;27709;52.036;5.906;2023-10-08T07:16:07;16.30;99.90
42031;DHT22;27709;52.036;5.906;2023-10-08T07:18:37;16.40;99.90
42031;DHT22;27709;52.036;5.906;2023-10-08T07:21:03;16.40;99.90
42031;DHT22;27709;52.036;5.906;2023-10-08T07:23:30;16.50;99.90
42031;DHT22;27709;52.036;5.906;2023-10-08T07:26:02;16.50;99.90
42031;DHT22;27709;52.036;5.906;2023-10-08T07:28:44;16.50;99.90
42031;DHT22;27709;52.036;5.906;2023-10-08T07:33:41;16.40;99.90
42031;DHT22;27709;52.036;5.906;2023-10-08T07:36:10;16.50;99.90
42031;DHT22;27709;52.036;5.906;2023-10-08T07:38:42;16.50;99.90
42031;DHT22;27709;52.036;5.906;2023-10-08T07:41:09;16.60;99.90
42031;DHT22;27709;52.036;5.906;2023-10-08T07:43:40;16.60;99.90
42031;DHT22;27709;52.036;5.906;2023-10-08T07:46:07;16.60;99.90
42031;DHT22;27709;52.036;5.906;2023-10-08T07:48:33;16.60;99.90
42031;DHT22;27709;52.036;5.906;2023-10-08T07:50:58;16.60;99.90
42031;DHT22;27709;52.036;5.906;2023-10-08T07:53:24;16.60;99.90
42031;DHT22;27709;52.036;5.906;2023-10-08T07:55:51;16.60;99.90
42031;DHT22;27709;52.036;5.906;2023-10-08T07:58:18;16.70;99.90
42031;DHT22;27709;52.036;5.906;2023-10-08T08:00:44;16.70;99.90
42031;DHT22;27709;52.036;5.906;2023-10-08T08:03:19;16.70;99.90
42031;DHT22;27709;52.036;5.906;2023-10-08T08:05:46;16.80;99.90
42031;DHT22;27709;52.036;5.906;2023-10-08T08:08:12;16.80;99.90
42031;DHT22;27709;52.036;5.906;2023-10-08T08:10:45;16.80;99.90
42031;DHT22;27709;52.036;5.906;2023-10-08T08:13:11;16.90;99.90
42031;DHT22;27709;52.036;5.906;2023-10-08T08:15:37;16.90;99.90
42031;DHT22;27709;52.036;5.906;2023-10-08T08:18:16;16.90;99.90
42031;DHT22;27709;52.036;5.906;2023-10-08T08:20:48;16.80;99.90
42031;DHT22;27709;52.036;5.906;2023-10-08T08:23:13;16.80;99.90
42031;DHT22;27709;52.036;5.906;2023-10-08T08:25:40;16.70;99.90
42031;DHT22;27709;52.036;5.906;2023-10-08T08:28:21;16.70;99.90
42031;DHT22;27709;52.036;5.906;2023-10-08T08:30:50;16.70;99.90
42031;DHT22;27709;52.036;5.906;2023-10-08T08:33:18;16.80;99.90
42031;DHT22;27709;52.036;5.906;2023-10-08T08:35:58;16.90;99.90
42031;DHT22;27709;52.036;5.906;2023-10-08T08:38:25;17.00;99.90
42031;DHT22;27709;52.036;5.906;2023-10-08T08:40:50;17.00;99.90
42031;DHT22;27709;52.036;5.906;2023-10-08T08:43:17;17.10;99.90
42031;DHT22;27709;52.036;5.906;2023-10-08T08:45:46;17.00;99.90
42031;DHT22;27709;52.036;5.906;2023-10-08T08:48:16;17.00;99.90
42031;DHT22;27709;52.036;5.906;2023-10-08T08:50:50;17.00;99.90
42031;DHT22;27709;52.036;5.906;2023-10-08T08:53:15;17.00;99.90
42031;DHT22;27709;52.036;5.906;2023-10-08T08:55:41;17.00;99.90
42031;DHT22;27709;52.036;5.906;2023-10-08T08:58:09;17.00;99.90
42031;DHT22;27709;52.036;5.906;2023-10-08T09:00:37;17.00;99.90
42031;DHT22;27709;52.036;5.906;2023-10-08T09:03:04;17.10;99.90
42031;DHT22;27709;52.036;5.906;2023-10-08T09:05:32;17.10;99.90
42031;DHT22;27709;52.036;5.906;2023-10-08T09:08:05;17.20;99.90
42031;DHT22;27709;52.036;5.906;2023-10-08T09:10:36;17.20;99.90
42031;DHT22;27709;52.036;5.906;2023-10-08T09:13:22;17.30;99.90
42031;DHT22;27709;52.036;5.906;2023-10-08T09:15:49;17.30;99.90
42031;DHT22;27709;52.036;5.906;2023-10-08T09:18:15;17.40;99.90
42031;DHT22;27709;52.036;5.906;2023-10-08T09:20:41;17.60;99.90
42031;DHT22;27709;52.036;5.906;2023-10-08T09:23:14;17.80;99.90
42031;DHT22;27709;52.036;5.906;2023-10-08T09:25:41;17.80;99.60
42031;DHT22;27709;52.036;5.906;2023-10-08T09:28:06;17.90;99.60
42031;DHT22;27709;52.036;5.906;2023-10-08T09:30:38;17.90;99.60
42031;DHT22;27709;52.036;5.906;2023-10-08T09:33:11;18.00;99.00
42031;DHT22;27709;52.036;5.906;2023-10-08T09:35:38;18.00;99.10
42031;DHT22;27709;52.036;5.906;2023-10-08T09:38:05;18.00;98.80
42031;DHT22;27709;52.036;5.906;2023-10-08T09:40:37;18.00;98.70
42031;DHT22;27709;52.036;5.906;2023-10-08T09:43:03;18.00;98.60
42031;DHT22;27709;52.036;5.906;2023-10-08T09:45:30;18.10;98.40
42031;DHT22;27709;52.036;5.906;2023-10-08T09:47:56;18.10;98.10
42031;DHT22;27709;52.036;5.906;2023-10-08T09:50:29;18.10;98.20
42031;DHT22;27709;52.036;5.906;2023-10-08T09:53:11;18.30;98.10
42031;DHT22;27709;52.036;5.906;2023-10-08T09:56:07;18.40;98.10
42031;DHT22;27709;52.036;5.906;2023-10-08T09:58:31;18.50;97.70
42031;DHT22;27709;52.036;5.906;2023-10-08T10:00:57;18.50;97.80
42031;DHT22;27709;52.036;5.906;2023-10-08T10:03:24;18.60;97.70
42031;DHT22;27709;52.036;5.906;2023-10-08T10:05:51;18.50;97.90
42031;DHT22;27709;52.036;5.906;2023-10-08T10:08:17;18.50;98.00
42031;DHT22;27709;52.036;5.906;2023-10-08T10:10:43;18.50;98.00
42031;DHT22;27709;52.036;5.906;2023-10-08T10:13:13;18.50;97.80
42031;DHT22;27709;52.036;5.906;2023-10-08T10:15:42;18.60;97.70
42031;DHT22;27709;52.036;5.906;2023-10-08T10:18:09;18.60;97.70
42031;DHT22;27709;52.036;5.906;2023-10-08T10:20:46;18.80;97.90
42031;DHT22;27709;52.036;5.906;2023-10-08T10:23:37;18.80;97.60
42031;DHT22;27709;52.036;5.906;2023-10-08T10:26:50;18.90;97.60
42031;DHT22;27709;52.036;5.906;2023-10-08T10:31:50;19.10;96.90
42031;DHT22;27709;52.036;5.906;2023-10-08T10:34:27;19.10;96.60
42031;DHT22;27709;52.036;5.906;2023-10-08T10:36:59;19.10;96.70
42031;DHT22;27709;52.036;5.906;2023-10-08T10:39:34;19.20;96.40
42031;DHT22;27709;52.036;5.906;2023-10-08T10:42:05;19.10;96.00
42031;DHT22;27709;52.036;5.906;2023-10-08T10:44:46;19.20;95.80
42031;DHT22;27709;52.036;5.906;2023-10-08T10:47:17;19.10;96.00
42031;DHT22;27709;52.036;5.906;2023-10-08T10:49:45;19.10;95.70
42031;DHT22;27709;52.036;5.906;2023-10-08T10:52:17;19.20;95.90
42031;DHT22;27709;52.036;5.906;2023-10-08T10:54:58;19.20;95.70
42031;DHT22;27709;52.036;5.906;2023-10-08T10:57:26;19.20;96.10
42031;DHT22;27709;52.036;5.906;2023-10-08T11:00:04;19.40;96.00
42031;DHT22;27709;52.036;5.906;2023-10-08T11:02:49;19.50;96.10
42031;DHT22;27709;52.036;5.906;2023-10-08T11:05:16;19.60;95.40
42031;DHT22;27709;52.036;5.906;2023-10-08T11:07:46;19.60;95.00
42031;DHT22;27709;52.036;5.906;2023-10-08T11:10:13;19.60;94.70
42031;DHT22;27709;52.036;5.906;2023-10-08T11:12:44;19.60;95.30
42031;DHT22;27709;52.036;5.906;2023-10-08T11:15:17;19.70;94.70
42031;DHT22;27709;52.036;5.906;2023-10-08T11:17:44;19.70;94.40
42031;DHT22;27709;52.036;5.906;2023-10-08T11:20:28;19.60;94.80
42031;DHT22;27709;52.036;5.906;2023-10-08T11:22:54;19.70;94.80
42031;DHT22;27709;52.036;5.906;2023-10-08T11:25:21;19.70;94.60
42031;DHT22;27709;52.036;5.906;2023-10-08T11:27:51;19.70;94.90
42031;DHT22;27709;52.036;5.906;2023-10-08T11:30:24;19.70;94.50
42031;DHT22;27709;52.036;5.906;2023-10-08T11:32:50;19.70;94.10
42031;DHT22;27709;52.036;5.906;2023-10-08T11:35:15;19.60;94.50
42031;DHT22;27709;52.036;5.906;2023-10-08T11:37:46;19.50;94.70
42031;DHT22;27709;52.036;5.906;2023-10-08T11:40:23;19.60;94.70
42031;DHT22;27709;52.036;5.906;2023-10-08T11:42:54;19.60;95.00
42031;DHT22;27709;52.036;5.906;2023-10-08T11:45:22;19.50;94.60
42031;DHT22;27709;52.036;5.906;2023-10-08T11:47:55;19.40;95.20
42031;DHT22;27709;52.036;5.906;2023-10-08T11:50:27;19.40;95.30
42031;DHT22;27709;52.036;5.906;2023-10-08T11:53:00;19.50;95.20
42031;DHT22;27709;52.036;5.906;2023-10-08T11:55:34;19.50;95.00
42031;DHT22;27709;52.036;5.906;2023-10-08T11:58:07;19.40;95.20
42031;DHT22;27709;52.036;5.906;2023-10-08T12:00:39;19.30;95.40
42031;DHT22;27709;52.036;5.906;2023-10-08T12:03:12;19.30;95.70
42031;DHT22;27709;52.036;5.906;2023-10-08T12:05:41;19.30;95.70
42031;DHT22;27709;52.036;5.906;2023-10-08T12:08:13;19.50;95.50
42031;DHT22;27709;52.036;5.906;2023-10-08T12:10:44;19.50;94.90
42031;DHT22;27709;52.036;5.906;2023-10-08T12:13:14;19.40;94.80
42031;DHT22;27709;52.036;5.906;2023-10-08T12:15:42;19.20;95.20
42031;DHT22;27709;52.036;5.906;2023-10-08T12:18:10;19.20;95.20
42031;DHT22;27709;52.036;5.906;2023-10-08T12:20:50;19.20;95.30
42031;DHT22;27709;52.036;5.906;2023-10-08T12:23:16;19.10;95.20
42031;DHT22;27709;52.036;5.906;2023-10-08T12:25:52;19.10;95.20
42031;DHT22;27709;52.036;5.906;2023-10-08T12:28:23;19.00;95.10
42031;DHT22;27709;52.036;5.906;2023-10-08T12:30:49;18.90;95.30
42031;DHT22;27709;52.036;5.906;2023-10-08T12:33:18;19.00;95.50
42031;DHT22;27709;52.036;5.906;2023-10-08T12:35:45;19.10;95.60
42031;DHT22;27709;52.036;5.906;2023-10-08T12:38:12;19.20;95.70
42031;DHT22;27709;52.036;5.906;2023-10-08T12:40:42;19.20;95.70
42031;DHT22;27709;52.036;5.906;2023-10-08T12:43:15;19.20;95.60
42031;DHT22;27709;52.036;5.906;2023-10-08T12:45:46;19.20;95.70
42031;DHT22;27709;52.036;5.906;2023-10-08T12:48:21;19.00;95.70
42031;DHT22;27709;52.036;5.906;2023-10-08T12:50:47;18.90;96.00
42031;DHT22;27709;52.036;5.906;2023-10-08T12:53:20;18.90;96.20
42031;DHT22;27709;52.036;5.906;2023-10-08T12:55:49;18.80;96.30
42031;DHT22;27709;52.036;5.906;2023-10-08T12:58:21;18.80;96.50
42031;DHT22;27709;52.036;5.906;2023-10-08T13:00:53;18.80;96.70
42031;DHT22;27709;52.036;5.906;2023-10-08T13:03:26;18.80;96.60
42031;DHT22;27709;52.036;5.906;2023-10-08T13:05:56;18.60;97.00
42031;DHT22;27709;52.036;5.906;2023-10-08T13:08:29;18.60;97.30
42031;DHT22;27709;52.036;5.906;2023-10-08T13:10:55;18.70;97.40
42031;DHT22;27709;52.036;5.906;2023-10-08T13:13:29;18.70;97.20
42031;DHT22;27709;52.036;5.906;2023-10-08T13:15:55;18.70;97.20
42031;DHT22;27709;52.036;5.906;2023-10-08T13:18:25;18.70;97.10
42031;DHT22;27709;52.036;5.906;2023-10-08T13:20:52;18.70;97.20
42031;DHT22;27709;52.036;5.906;2023-10-08T13:23:18;18.70;97.00
42031;DHT22;27709;52.036;5.906;2023-10-08T13:25:52;18.80;97.00
42031;DHT22;27709;52.036;5.906;2023-10-08T13:28:21;18.70;96.90
42031;DHT22;27709;52.036;5.906;2023-10-08T13:30:48;18.60;97.00
42031;DHT22;27709;52.036;5.906;2023-10-08T13:33:20;18.60;97.40
42031;DHT22;27709;52.036;5.906;2023-10-08T13:35:46;18.50;97.40
42031;DHT22;27709;52.036;5.906;2023-10-08T13:38:18;18.40;98.10
42031;DHT22;27709;52.036;5.906;2023-10-08T13:40:49;18.40;98.40
42031;DHT22;27709;52.036;5.906;2023-10-08T13:43:33;18.30;98.60
42031;DHT22;27709;52.036;5.906;2023-10-08T13:46:07;18.30;99.10
42031;DHT22;27709;52.036;5.906;2023-10-08T13:48:34;18.30;99.30
42031;DHT22;27709;52.036;5.906;2023-10-08T13:51:04;18.30;99.30
42031;DHT22;27709;52.036;5.906;2023-10-08T13:53:31;18.30;99.30
42031;DHT22;27709;52.036;5.906;2023-10-08T13:56:01;18.30;99.50
42031;DHT22;27709;52.036;5.906;2023-10-08T13:58:28;18.40;99.70
42031;DHT22;27709;52.036;5.906;2023-10-08T14:00:57;18.40;99.60
42031;DHT22;27709;52.036;5.906;2023-10-08T14:03:26;18.40;99.60
42031;DHT22;27709;52.036;5.906;2023-10-08T14:05:52;18.30;99.90
42031;DHT22;27709;52.036;5.906;2023-10-08T14:08:18;18.30;99.70
42031;DHT22;27709;52.036;5.906;2023-10-08T14:10:45;18.20;99.70
42031;DHT22;27709;52.036;5.906;2023-10-08T14:13:11;18.20;99.90
42031;DHT22;27709;52.036;5.906;2023-10-08T14:15:36;18.20;99.90
42031;DHT22;27709;52.036;5.906;2023-10-08T14:18:10;18.20;99.90
42031;DHT22;27709;52.036;5.906;2023-10-08T14:20:38;18.30;99.90
42031;DHT22;27709;52.036;5.906;2023-10-08T14:23:06;18.30;99.90
42031;DHT22;27709;52.036;5.906;2023-10-08T14:25:31;18.20;99.90
42031;DHT22;27709;52.036;5.906;2023-10-08T14:27:59;18.20;99.90
42031;DHT22;27709;52.036;5.906;2023-10-08T14:30:33;18.20;99.90
42031;DHT22;27709;52.036;5.906;2023-10-08T14:33:06;18.20;99.90
42031;DHT22;27709;52.036;5.906;2023-10-08T14:35:34;18.30;99.90
42031;DHT22;27709;52.036;5.906;2023-10-08T14:38:18;18.20;99.90
42031;DHT22;27709;52.036;5.906;2023-10-08T14:41:02;18.20;99.90
42031;DHT22;27709;52.036;5.906;2023-10-08T14:43:48;18.20;99.90
42031;DHT22;27709;52.036;5.906;2023-10-08T14:46:14;18.10;99.90
42031;DHT22;27709;52.036;5.906;2023-10-08T14:48:40;18.00;99.90
42031;DHT22;27709;52.036;5.906;2023-10-08T14:51:06;17.90;99.90
42031;DHT22;27709;52.036;5.906;2023-10-08T14:53:32;17.90;99.90
42031;DHT22;27709;52.036;5.906;2023-10-08T14:56:00;17.90;99.90
42031;DHT22;27709;52.036;5.906;2023-10-08T14:58:29;17.90;99.90
42031;DHT22;27709;52.036;5.906;2023-10-08T15:00:55;17.90;99.90
42031;DHT22;27709;52.036;5.906;2023-10-08T15:03:20;18.00;99.90
42031;DHT22;27709;52.036;5.906;2023-10-08T15:05:46;18.00;99.90
42031;DHT22;27709;52.036;5.906;2023-10-08T15:08:13;18.00;99.90
42031;DHT22;27709;52.036;5.906;2023-10-08T15:10:40;18.00;99.90
42031;DHT22;27709;52.036;5.906;2023-10-08T15:13:06;18.10;99.90
42031;DHT22;27709;52.036;5.906;2023-10-08T15:15:32;18.00;99.90
42031;DHT22;27709;52.036;5.906;2023-10-08T15:18:00;18.10;99.90
42031;DHT22;27709;52.036;5.906;2023-10-08T15:20:27;18.00;99.90
42031;DHT22;27709;52.036;5.906;2023-10-08T15:22:55;18.00;99.90
42031;DHT22;27709;52.036;5.906;2023-10-08T15:25:21;17.90;99.90
42031;DHT22;27709;52.036;5.906;2023-10-08T15:27:47;17.90;99.90
42031;DHT22;27709;52.036;5.906;2023-10-08T15:30:16;17.90;99.90
42031;DHT22;27709;52.036;5.906;2023-10-08T15:32:43;17.80;99.90
42031;DHT22;27709;52.036;5.906;2023-10-08T15:35:10;17.90;99.90
42031;DHT22;27709;52.036;5.906;2023-10-08T15:37:37;17.90;99.90
42031;DHT22;27709;52.036;5.906;2023-10-08T15:40:06;17.80;99.90
42031;DHT22;27709;52.036;5.906;2023-10-08T15:42:36;17.80;99.90
42031;DHT22;27709;52.036;5.906;2023-10-08T15:45:03;17.80;99.90
42031;DHT22;27709;52.036;5.906;2023-10-08T15:47:29;17.80;99.90
42031;DHT22;27709;52.036;5.906;2023-10-08T15:49:56;17.90;99.90
42031;DHT22;27709;52.036;5.906;2023-10-08T15:52:24;17.90;99.90
42031;DHT22;27709;52.036;5.906;2023-10-08T15:54:49;18.00;99.90
42031;DHT22;27709;52.036;5.906;2023-10-08T15:57:15;17.90;99.90
42031;DHT22;27709;52.036;5.906;2023-10-08T15:59:40;18.00;99.90
42031;DHT22;27709;52.036;5.906;2023-10-08T16:02:06;17.90;99.90
42031;DHT22;27709;52.036;5.906;2023-10-08T16:04:32;17.90;99.90